Carmel, California
Current Conditions -  °F | °C
As of 6:01 PM on Friday 31 Oct 2014 (Local Time) from KMRY Reporting Station
Light Rain Light Rain  
Wind Chill: 55°   Ceiling: 6500
Heat Index: 55°   Visibility: 7mi
Dew Point: 54°   Wind: 6mph
Humidity: 94%   Direction: 110°ESE
Pressure: 29.78"   Gusts: NA
Location:  36.56°N, 121.92°W
Report Text: KMRY 010101Z 11005KT 7SM -RA OVC065 13/12 A2978 RMK AO2 P0001
Loading
Personal Weather Stations






























Interactive Weather Map
Tropical Storm Tracking
New forecast layout! Learn more

10-Day Weather Forecast

Advertisements
Track Severe Weather on mobile